sensor_id;sensor_type;location;lat;lon;timestamp;pressure;altitude;pressure_sealevel;temperature;humidity
56721;BME280;53183;47.412;18.884;2022-11-20T00:01:23;98902.94;;;0.72;98.07
56721;BME280;53183;47.412;18.884;2022-11-20T00:03:52;98895.00;;;0.78;97.74
56721;BME280;53183;47.412;18.884;2022-11-20T00:06:20;98890.69;;;0.77;97.62
56721;BME280;53183;47.412;18.884;2022-11-20T00:08:48;98889.06;;;0.71;98.35
56721;BME280;53183;47.412;18.884;2022-11-20T00:11:21;98889.19;;;0.66;98.26
56721;BME280;53183;47.412;18.884;2022-11-20T00:13:51;98895.37;;;0.61;98.10
56721;BME280;53183;47.412;18.884;2022-11-20T00:16:21;98895.34;;;0.62;97.28
56721;BME280;53183;47.412;18.884;2022-11-20T00:18:48;98902.28;;;0.62;97.04
56721;BME280;53183;47.412;18.884;2022-11-20T00:21:18;98903.25;;;0.58;97.85
56721;BME280;53183;47.412;18.884;2022-11-20T00:23:45;98912.63;;;0.65;97.15
56721;BME280;53183;47.412;18.884;2022-11-20T00:26:14;98908.12;;;0.73;96.40
56721;BME280;53183;47.412;18.884;2022-11-20T00:28:43;98900.19;;;0.78;96.69
56721;BME280;53183;47.412;18.884;2022-11-20T00:31:13;98892.53;;;0.72;97.97
56721;BME280;53183;47.412;18.884;2022-11-20T00:33:41;98902.72;;;0.81;97.62
56721;BME280;53183;47.412;18.884;2022-11-20T00:36:11;98926.13;;;0.81;97.31
56721;BME280;53183;47.412;18.884;2022-11-20T00:38:40;98924.38;;;0.83;97.78
56721;BME280;53183;47.412;18.884;2022-11-20T00:41:09;98919.22;;;0.80;96.38
56721;BME280;53183;47.412;18.884;2022-11-20T00:43:37;98907.88;;;0.82;97.17
56721;BME280;53183;47.412;18.884;2022-11-20T00:46:10;98887.81;;;0.89;95.70
56721;BME280;53183;47.412;18.884;2022-11-20T00:48:39;98898.72;;;1.03;94.51
56721;BME280;53183;47.412;18.884;2022-11-20T00:51:06;98898.78;;;1.00;95.40
56721;BME280;53183;47.412;18.884;2022-11-20T00:53:34;98888.25;;;1.05;93.43
56721;BME280;53183;47.412;18.884;2022-11-20T00:56:03;98890.34;;;0.90;94.20
56721;BME280;53183;47.412;18.884;2022-11-20T00:58:36;98890.22;;;0.95;92.96
56721;BME280;53183;47.412;18.884;2022-11-20T01:01:29;98883.19;;;0.99;93.08
56721;BME280;53183;47.412;18.884;2022-11-20T01:03:59;98879.81;;;0.95;93.10
56721;BME280;53183;47.412;18.884;2022-11-20T01:06:35;98882.59;;;0.89;92.99
56721;BME280;53183;47.412;18.884;2022-11-20T01:09:12;98891.53;;;0.77;94.57
56721;BME280;53183;47.412;18.884;2022-11-20T01:11:41;98897.84;;;0.67;94.84
56721;BME280;53183;47.412;18.884;2022-11-20T01:14:12;98902.22;;;0.65;95.65
56721;BME280;53183;47.412;18.884;2022-11-20T01:16:42;98917.16;;;0.57;95.73
56721;BME280;53183;47.412;18.884;2022-11-20T01:19:11;98915.59;;;0.50;96.91
56721;BME280;53183;47.412;18.884;2022-11-20T01:21:44;98917.59;;;0.37;98.26
56721;BME280;53183;47.412;18.884;2022-11-20T01:24:14;98926.00;;;0.48;96.71
56721;BME280;53183;47.412;18.884;2022-11-20T01:26:43;98916.25;;;0.59;95.61
56721;BME280;53183;47.412;18.884;2022-11-20T01:29:15;98907.47;;;0.63;96.00
56721;BME280;53183;47.412;18.884;2022-11-20T01:31:44;98909.03;;;0.70;95.21
56721;BME280;53183;47.412;18.884;2022-11-20T01:34:13;98911.63;;;0.70;95.47
56721;BME280;53183;47.412;18.884;2022-11-20T01:36:41;98908.06;;;0.75;96.04
56721;BME280;53183;47.412;18.884;2022-11-20T01:39:14;98904.34;;;0.85;95.54
56721;BME280;53183;47.412;18.884;2022-11-20T01:41:41;98907.22;;;0.74;95.72
56721;BME280;53183;47.412;18.884;2022-11-20T01:45:00;98903.06;;;0.65;97.60
56721;BME280;53183;47.412;18.884;2022-11-20T01:47:41;98906.72;;;0.58;97.97
56721;BME280;53183;47.412;18.884;2022-11-20T01:50:18;98899.66;;;0.63;98.43
56721;BME280;53183;47.412;18.884;2022-11-20T01:52:56;98889.28;;;0.63;98.41
56721;BME280;53183;47.412;18.884;2022-11-20T01:55:31;98888.31;;;0.67;98.31
56721;BME280;53183;47.412;18.884;2022-11-20T01:58:01;98883.09;;;0.67;97.51
56721;BME280;53183;47.412;18.884;2022-11-20T02:00:29;98887.78;;;0.53;99.26
56721;BME280;53183;47.412;18.884;2022-11-20T02:02:59;98894.75;;;0.51;99.78
56721;BME280;53183;47.412;18.884;2022-11-20T02:05:35;98895.37;;;0.61;100.00
56721;BME280;53183;47.412;18.884;2022-11-20T02:08:04;98896.34;;;0.57;100.00
56721;BME280;53183;47.412;18.884;2022-11-20T02:10:34;98897.94;;;0.62;100.00
56721;BME280;53183;47.412;18.884;2022-11-20T02:13:01;98899.94;;;0.51;100.00
56721;BME280;53183;47.412;18.884;2022-11-20T02:15:48;98887.91;;;0.47;100.00
56721;BME280;53183;47.412;18.884;2022-11-20T02:18:17;98890.53;;;0.45;100.00
56721;BME280;53183;47.412;18.884;2022-11-20T02:20:48;98887.47;;;0.65;100.00
56721;BME280;53183;47.412;18.884;2022-11-20T02:23:26;98897.84;;;0.67;100.00
56721;BME280;53183;47.412;18.884;2022-11-20T02:25:55;98906.38;;;0.72;100.00
56721;BME280;53183;47.412;18.884;2022-11-20T02:28:24;98897.78;;;0.70;100.00
56721;BME280;53183;47.412;18.884;2022-11-20T02:30:51;98880.87;;;0.88;100.00
56721;BME280;53183;47.412;18.884;2022-11-20T02:33:18;98882.34;;;0.98;98.47
56721;BME280;53183;47.412;18.884;2022-11-20T02:35:46;98885.91;;;0.96;98.93
56721;BME280;53183;47.412;18.884;2022-11-20T02:38:14;98881.78;;;0.85;99.24
56721;BME280;53183;47.412;18.884;2022-11-20T02:40:41;98882.50;;;0.92;100.00
56721;BME280;53183;47.412;18.884;2022-11-20T02:43:09;98880.00;;;0.89;99.81
56721;BME280;53183;47.412;18.884;2022-11-20T02:45:37;98875.31;;;1.02;99.21
56721;BME280;53183;47.412;18.884;2022-11-20T02:48:06;98878.63;;;1.08;98.57
56721;BME280;53183;47.412;18.884;2022-11-20T02:50:37;98877.22;;;0.95;99.71
56721;BME280;53183;47.412;18.884;2022-11-20T02:53:05;98879.81;;;0.97;100.00
56721;BME280;53183;47.412;18.884;2022-11-20T02:55:32;98886.78;;;0.94;100.00
56721;BME280;53183;47.412;18.884;2022-11-20T02:58:00;98881.16;;;1.11;99.50
56721;BME280;53183;47.412;18.884;2022-11-20T03:00:27;98872.56;;;1.08;98.73
56721;BME280;53183;47.412;18.884;2022-11-20T03:02:54;98869.41;;;0.95;100.00
56721;BME280;53183;47.412;18.884;2022-11-20T03:05:21;98855.47;;;0.98;100.00
56721;BME280;53183;47.412;18.884;2022-11-20T03:07:48;98847.16;;;1.17;99.70
56721;BME280;53183;47.412;18.884;2022-11-20T03:10:15;98846.09;;;1.25;99.02
56721;BME280;53183;47.412;18.884;2022-11-20T03:12:43;98858.72;;;1.07;99.62
56721;BME280;53183;47.412;18.884;2022-11-20T03:15:10;98864.75;;;1.08;100.00
56721;BME280;53183;47.412;18.884;2022-11-20T03:17:37;98857.09;;;1.03;100.00
56721;BME280;53183;47.412;18.884;2022-11-20T03:20:05;98868.06;;;1.14;100.00
56721;BME280;53183;47.412;18.884;2022-11-20T03:22:32;98866.44;;;1.10;100.00
56721;BME280;53183;47.412;18.884;2022-11-20T03:24:59;98887.19;;;1.13;100.00
56721;BME280;53183;47.412;18.884;2022-11-20T03:27:27;98887.34;;;1.07;100.00
56721;BME280;53183;47.412;18.884;2022-11-20T03:29:54;98888.09;;;1.11;100.00
56721;BME280;53183;47.412;18.884;2022-11-20T03:32:21;98886.97;;;1.23;100.00
56721;BME280;53183;47.412;18.884;2022-11-20T03:34:48;98876.34;;;1.30;100.00
56721;BME280;53183;47.412;18.884;2022-11-20T03:37:15;98870.81;;;1.43;98.00
56721;BME280;53183;47.412;18.884;2022-11-20T03:39:42;98880.09;;;1.53;96.96
56721;BME280;53183;47.412;18.884;2022-11-20T03:42:09;98863.19;;;1.35;98.07
56721;BME280;53183;47.412;18.884;2022-11-20T03:44:56;98866.94;;;1.25;98.85
56721;BME280;53183;47.412;18.884;2022-11-20T03:47:24;98869.53;;;1.25;99.37
56721;BME280;53183;47.412;18.884;2022-11-20T03:49:51;98875.50;;;1.28;98.77
56721;BME280;53183;47.412;18.884;2022-11-20T03:52:18;98878.69;;;1.39;98.02
56721;BME280;53183;47.412;18.884;2022-11-20T03:54:45;98889.22;;;1.35;98.36
56721;BME280;53183;47.412;18.884;2022-11-20T03:57:12;98883.91;;;1.39;98.56
56721;BME280;53183;47.412;18.884;2022-11-20T03:59:39;98879.72;;;1.34;99.87
56721;BME280;53183;47.412;18.884;2022-11-20T04:02:06;98867.81;;;1.24;100.00
56721;BME280;53183;47.412;18.884;2022-11-20T04:04:34;98862.19;;;1.40;100.00
56721;BME280;53183;47.412;18.884;2022-11-20T04:07:02;98855.47;;;1.32;100.00
56721;BME280;53183;47.412;18.884;2022-11-20T04:09:29;98851.16;;;1.31;100.00
56721;BME280;53183;47.412;18.884;2022-11-20T04:11:56;98842.72;;;1.21;100.00
56721;BME280;53183;47.412;18.884;2022-11-20T04:14:23;98841.31;;;1.09;100.00
56721;BME280;53183;47.412;18.884;2022-11-20T04:16:50;98825.13;;;0.98;100.00
56721;BME280;53183;47.412;18.884;2022-11-20T04:19:17;98821.78;;;0.93;100.00
56721;BME280;53183;47.412;18.884;2022-11-20T04:21:45;98825.13;;;0.98;100.00
56721;BME280;53183;47.412;18.884;2022-11-20T04:24:12;98824.31;;;0.96;100.00
56721;BME280;53183;47.412;18.884;2022-11-20T04:26:40;98835.78;;;0.89;100.00
56721;BME280;53183;47.412;18.884;2022-11-20T04:29:11;98836.50;;;0.94;100.00
56721;BME280;53183;47.412;18.884;2022-11-20T04:31:38;98839.03;;;0.97;100.00
56721;BME280;53183;47.412;18.884;2022-11-20T04:34:06;98830.38;;;0.97;100.00
56721;BME280;53183;47.412;18.884;2022-11-20T04:36:34;98836.28;;;1.02;100.00
56721;BME280;53183;47.412;18.884;2022-11-20T04:39:04;98829.25;;;1.05;100.00
56721;BME280;53183;47.412;18.884;2022-11-20T04:41:33;98812.09;;;1.00;100.00
56721;BME280;53183;47.412;18.884;2022-11-20T04:44:03;98822.19;;;1.10;100.00
56721;BME280;53183;47.412;18.884;2022-11-20T04:46:39;98812.87;;;1.02;100.00
56721;BME280;53183;47.412;18.884;2022-11-20T04:49:08;98824.63;;;0.84;100.00
56721;BME280;53183;47.412;18.884;2022-11-20T04:51:35;98815.75;;;0.92;100.00
56721;BME280;53183;47.412;18.884;2022-11-20T04:54:02;98818.75;;;1.10;100.00
56721;BME280;53183;47.412;18.884;2022-11-20T04:56:30;98799.16;;;0.97;100.00
56721;BME280;53183;47.412;18.884;2022-11-20T04:59:00;98800.06;;;0.96;100.00
56721;BME280;53183;47.412;18.884;2022-11-20T05:01:28;98811.34;;;0.94;100.00
56721;BME280;53183;47.412;18.884;2022-11-20T05:03:55;98819.22;;;0.91;100.00
56721;BME280;53183;47.412;18.884;2022-11-20T05:06:22;98820.00;;;0.95;100.00
56721;BME280;53183;47.412;18.884;2022-11-20T05:08:50;98820.03;;;0.93;100.00
56721;BME280;53183;47.412;18.884;2022-11-20T05:11:19;98826.91;;;0.96;100.00
56721;BME280;53183;47.412;18.884;2022-11-20T05:13:47;98815.75;;;0.92;100.00
56721;BME280;53183;47.412;18.884;2022-11-20T05:16:20;98814.25;;;1.16;100.00
56721;BME280;53183;47.412;18.884;2022-11-20T05:18:48;98809.50;;;1.31;100.00
56721;BME280;53183;47.412;18.884;2022-11-20T05:21:16;98829.63;;;1.26;100.00
56721;BME280;53183;47.412;18.884;2022-11-20T05:23:44;98831.38;;;1.24;100.00
56721;BME280;53183;47.412;18.884;2022-11-20T05:26:14;98821.44;;;1.38;100.00
56721;BME280;53183;47.412;18.884;2022-11-20T05:28:42;98814.72;;;1.31;100.00
56721;BME280;53183;47.412;18.884;2022-11-20T05:31:20;98811.09;;;1.36;100.00
56721;BME280;53183;47.412;18.884;2022-11-20T05:33:55;98800.22;;;1.53;99.47
56721;BME280;53183;47.412;18.884;2022-11-20T05:36:22;98799.59;;;1.45;99.03
56721;BME280;53183;47.412;18.884;2022-11-20T05:38:49;98785.75;;;1.43;99.79
56721;BME280;53183;47.412;18.884;2022-11-20T05:41:20;98787.59;;;1.38;100.00
56721;BME280;53183;47.412;18.884;2022-11-20T05:43:48;98792.38;;;1.55;100.00
56721;BME280;53183;47.412;18.884;2022-11-20T05:46:17;98804.03;;;1.42;99.85
56721;BME280;53183;47.412;18.884;2022-11-20T05:48:51;98805.63;;;1.46;100.00
56721;BME280;53183;47.412;18.884;2022-11-20T05:51:19;98813.28;;;1.52;99.60
56721;BME280;53183;47.412;18.884;2022-11-20T05:53:46;98815.81;;;1.53;98.85
56721;BME280;53183;47.412;18.884;2022-11-20T05:56:17;98819.53;;;1.45;100.00
56721;BME280;53183;47.412;18.884;2022-11-20T05:58:45;98816.66;;;1.55;98.88
56721;BME280;53183;47.412;18.884;2022-11-20T06:01:23;98804.25;;;1.63;99.00
56721;BME280;53183;47.412;18.884;2022-11-20T06:03:52;98820.69;;;1.66;98.50
56721;BME280;53183;47.412;18.884;2022-11-20T06:06:20;98828.69;;;1.59;100.00
56721;BME280;53183;47.412;18.884;2022-11-20T06:08:47;98814.97;;;1.53;99.43
56721;BME280;53183;47.412;18.884;2022-11-20T06:11:16;98813.41;;;1.47;98.89
56721;BME280;53183;47.412;18.884;2022-11-20T06:13:43;98821.09;;;1.52;100.00
56721;BME280;53183;47.412;18.884;2022-11-20T06:16:12;98817.66;;;1.50;99.23
56721;BME280;53183;47.412;18.884;2022-11-20T06:18:40;98821.00;;;1.55;99.44
56721;BME280;53183;47.412;18.884;2022-11-20T06:21:10;98824.63;;;1.49;98.48
56721;BME280;53183;47.412;18.884;2022-11-20T06:23:37;98817.31;;;1.31;99.51
56721;BME280;53183;47.412;18.884;2022-11-20T06:26:10;98823.97;;;1.41;100.00
56721;BME280;53183;47.412;18.884;2022-11-20T06:28:41;98824.97;;;1.37;99.53
56721;BME280;53183;47.412;18.884;2022-11-20T06:31:10;98825.63;;;1.45;100.00
56721;BME280;53183;47.412;18.884;2022-11-20T06:33:39;98842.63;;;1.58;99.44
56721;BME280;53183;47.412;18.884;2022-11-20T06:36:06;98852.13;;;1.59;98.19
56721;BME280;53183;47.412;18.884;2022-11-20T06:38:38;98851.06;;;1.67;98.42
56721;BME280;53183;47.412;18.884;2022-11-20T06:41:06;98852.25;;;1.86;97.06
56721;BME280;53183;47.412;18.884;2022-11-20T06:43:34;98862.06;;;1.76;96.18
56721;BME280;53183;47.412;18.884;2022-11-20T06:46:01;98866.34;;;1.79;99.74
56721;BME280;53183;47.412;18.884;2022-11-20T06:48:28;98860.91;;;1.86;97.23
56721;BME280;53183;47.412;18.884;2022-11-20T06:50:56;98857.87;;;2.00;95.84
56721;BME280;53183;47.412;18.884;2022-11-20T06:53:24;98850.91;;;2.02;96.25
56721;BME280;53183;47.412;18.884;2022-11-20T06:55:51;98847.63;;;1.96;97.30
56721;BME280;53183;47.412;18.884;2022-11-20T06:58:19;98842.13;;;2.05;97.86
56721;BME280;53183;47.412;18.884;2022-11-20T07:00:46;98841.31;;;2.03;96.73
56721;BME280;53183;47.412;18.884;2022-11-20T07:03:13;98835.09;;;2.07;96.36
56721;BME280;53183;47.412;18.884;2022-11-20T07:05:40;98843.91;;;2.32;95.74
56721;BME280;53183;47.412;18.884;2022-11-20T07:08:08;98842.44;;;2.52;94.73
56721;BME280;53183;47.412;18.884;2022-11-20T07:10:35;98850.69;;;2.38;95.53
56721;BME280;53183;47.412;18.884;2022-11-20T07:13:03;98861.78;;;2.45;96.00
56721;BME280;53183;47.412;18.884;2022-11-20T07:15:30;98869.62;;;2.43;96.39
56721;BME280;53183;47.412;18.884;2022-11-20T07:18:00;98862.34;;;2.54;97.57
56721;BME280;53183;47.412;18.884;2022-11-20T07:20:28;98871.97;;;2.52;98.24
56721;BME280;53183;47.412;18.884;2022-11-20T07:22:56;98858.94;;;2.52;99.94
56721;BME280;53183;47.412;18.884;2022-11-20T07:25:25;98857.13;;;2.54;100.00
56721;BME280;53183;47.412;18.884;2022-11-20T07:27:52;98866.84;;;2.49;100.00
56721;BME280;53183;47.412;18.884;2022-11-20T07:30:20;98874.66;;;2.49;100.00
56721;BME280;53183;47.412;18.884;2022-11-20T07:32:50;98874.84;;;2.43;100.00
56721;BME280;53183;47.412;18.884;2022-11-20T07:35:17;98870.72;;;2.36;100.00
56721;BME280;53183;47.412;18.884;2022-11-20T07:37:45;98868.41;;;2.55;100.00
56721;BME280;53183;47.412;18.884;2022-11-20T07:40:13;98871.72;;;2.32;100.00
56721;BME280;53183;47.412;18.884;2022-11-20T07:42:51;98873.53;;;2.30;100.00
56721;BME280;53183;47.412;18.884;2022-11-20T07:45:20;98870.12;;;2.28;100.00
56721;BME280;53183;47.412;18.884;2022-11-20T07:47:47;98867.50;;;2.56;100.00
56721;BME280;53183;47.412;18.884;2022-11-20T07:50:15;98868.41;;;2.55;100.00
56721;BME280;53183;47.412;18.884;2022-11-20T07:52:43;98868.78;;;2.43;100.00
56721;BME280;53183;47.412;18.884;2022-11-20T07:55:10;98870.31;;;2.50;100.00
56721;BME280;53183;47.412;18.884;2022-11-20T07:57:37;98867.91;;;2.44;100.00
56721;BME280;53183;47.412;18.884;2022-11-20T08:00:06;98865.09;;;2.50;100.00
56721;BME280;53183;47.412;18.884;2022-11-20T08:02:38;98861.06;;;2.68;98.91
56721;BME280;53183;47.412;18.884;2022-11-20T08:05:09;98855.66;;;2.74;99.25
56721;BME280;53183;47.412;18.884;2022-11-20T08:07:37;98849.97;;;2.88;97.35
56721;BME280;53183;47.412;18.884;2022-11-20T08:10:06;98838.12;;;2.77;98.96
56721;BME280;53183;47.412;18.884;2022-11-20T08:12:34;98845.13;;;2.77;98.81
56721;BME280;53183;47.412;18.884;2022-11-20T08:15:20;98849.53;;;2.75;100.00
56721;BME280;53183;47.412;18.884;2022-11-20T08:17:48;98849.91;;;2.89;99.98
56721;BME280;53183;47.412;18.884;2022-11-20T08:20:35;98852.22;;;2.98;99.53
56721;BME280;53183;47.412;18.884;2022-11-20T08:23:04;98848.84;;;2.96;100.00
56721;BME280;53183;47.412;18.884;2022-11-20T08:25:38;98843.28;;;3.05;100.00
56721;BME280;53183;47.412;18.884;2022-11-20T08:28:07;98844.50;;;2.95;100.00
56721;BME280;53183;47.412;18.884;2022-11-20T08:30:46;98842.97;;;3.15;100.00
56721;BME280;53183;47.412;18.884;2022-11-20T08:33:13;98864.09;;;3.34;100.00
56721;BME280;53183;47.412;18.884;2022-11-20T08:35:40;98868.06;;;3.19;99.37
56721;BME280;53183;47.412;18.884;2022-11-20T08:38:09;98860.78;;;3.03;100.00
56721;BME280;53183;47.412;18.884;2022-11-20T08:40:36;98854.00;;;2.98;100.00
56721;BME280;53183;47.412;18.884;2022-11-20T08:43:03;98871.31;;;3.00;100.00
56721;BME280;53183;47.412;18.884;2022-11-20T08:45:31;98869.28;;;3.09;100.00
56721;BME280;53183;47.412;18.884;2022-11-20T08:48:02;98879.75;;;3.34;100.00
56721;BME280;53183;47.412;18.884;2022-11-20T08:50:30;98880.44;;;3.64;100.00
56721;BME280;53183;47.412;18.884;2022-11-20T08:53:05;98883.28;;;3.83;100.00
56721;BME280;53183;47.412;18.884;2022-11-20T08:55:33;98891.66;;;3.91;99.81
56721;BME280;53183;47.412;18.884;2022-11-20T08:58:11;98904.19;;;4.06;99.32
56721;BME280;53183;47.412;18.884;2022-11-20T09:00:38;98907.66;;;4.07;100.00
56721;BME280;53183;47.412;18.884;2022-11-20T09:03:05;98900.56;;;4.10;99.53
56721;BME280;53183;47.412;18.884;2022-11-20T09:05:33;98899.78;;;4.08;100.00
56721;BME280;53183;47.412;18.884;2022-11-20T09:08:00;98902.19;;;4.13;100.00
56721;BME280;53183;47.412;18.884;2022-11-20T09:10:27;98905.34;;;4.22;98.86
56721;BME280;53183;47.412;18.884;2022-11-20T09:12:57;98902.09;;;4.16;98.43
56721;BME280;53183;47.412;18.884;2022-11-20T09:15:25;98902.31;;;4.33;96.43
56721;BME280;53183;47.412;18.884;2022-11-20T09:18:00;98899.75;;;4.32;97.84
56721;BME280;53183;47.412;18.884;2022-11-20T09:20:29;98899.22;;;4.45;97.52
56721;BME280;53183;47.412;18.884;2022-11-20T09:22:57;98901.03;;;4.43;97.50
56721;BME280;53183;47.412;18.884;2022-11-20T09:25:24;98893.31;;;4.40;98.41
56721;BME280;53183;47.412;18.884;2022-11-20T09:27:56;98893.19;;;4.43;99.52
56721;BME280;53183;47.412;18.884;2022-11-20T09:30:23;98883.88;;;4.36;99.85
56721;BME280;53183;47.412;18.884;2022-11-20T09:32:50;98885.56;;;4.37;99.98
56721;BME280;53183;47.412;18.884;2022-11-20T09:35:18;98882.59;;;4.46;100.00
56721;BME280;53183;47.412;18.884;2022-11-20T09:37:45;98895.87;;;4.64;100.00
56721;BME280;53183;47.412;18.884;2022-11-20T09:40:22;98891.53;;;4.64;100.00
56721;BME280;53183;47.412;18.884;2022-11-20T09:45:49;98885.19;;;4.70;97.09
56721;BME280;53183;47.412;18.884;2022-11-20T09:56:39;98896.63;;;4.89;93.86
56721;BME280;53183;47.412;18.884;2022-11-20T09:59:47;98887.44;;;5.01;92.48
56721;BME280;53183;47.412;18.884;2022-11-20T10:02:16;98882.34;;;5.18;91.34
56721;BME280;53183;47.412;18.884;2022-11-20T10:04:49;98886.94;;;5.34;92.00
56721;BME280;53183;47.412;18.884;2022-11-20T10:07:23;98875.28;;;5.41;89.52
56721;BME280;53183;47.412;18.884;2022-11-20T10:10:00;98874.59;;;5.15;90.11
56721;BME280;53183;47.412;18.884;2022-11-20T10:12:37;98868.28;;;4.99;90.73
56721;BME280;53183;47.412;18.884;2022-11-20T10:15:34;98853.47;;;4.78;91.90
56721;BME280;53183;47.412;18.884;2022-11-20T10:26:13;98841.81;;;5.48;88.87
56721;BME280;53183;47.412;18.884;2022-11-20T10:29:22;98847.50;;;5.57;87.58
56721;BME280;53183;47.412;18.884;2022-11-20T10:32:01;98848.72;;;5.69;86.51
56721;BME280;53183;47.412;18.884;2022-11-20T10:34:38;98839.12;;;5.88;86.89
56721;BME280;53183;47.412;18.884;2022-11-20T10:37:22;98834.34;;;5.78;86.73
56721;BME280;53183;47.412;18.884;2022-11-20T10:45:40;98824.41;;;5.86;88.03
56721;BME280;53183;47.412;18.884;2022-11-20T10:48:23;98828.97;;;5.81;85.48
56721;BME280;53183;47.412;18.884;2022-11-20T10:53:47;98824.41;;;5.65;88.39
56721;BME280;53183;47.412;18.884;2022-11-20T10:56:38;98826.72;;;5.73;88.60
56721;BME280;53183;47.412;18.884;2022-11-20T10:59:32;98835.59;;;5.69;88.07
56721;BME280;53183;47.412;18.884;2022-11-20T11:02:14;98854.69;;;5.73;87.72
56721;BME280;53183;47.412;18.884;2022-11-20T11:04:45;98864.78;;;5.61;87.35
56721;BME280;53183;47.412;18.884;2022-11-20T11:07:21;98865.59;;;5.63;87.40
56721;BME280;53183;47.412;18.884;2022-11-20T11:09:54;98854.62;;;5.74;88.54
56721;BME280;53183;47.412;18.884;2022-11-20T11:12:27;98854.47;;;5.77;86.58
56721;BME280;53183;47.412;18.884;2022-11-20T11:14:57;98854.25;;;5.82;87.16
56721;BME280;53183;47.412;18.884;2022-11-20T11:17:33;98862.09;;;5.83;87.33
56721;BME280;53183;47.412;18.884;2022-11-20T11:22:33;98865.81;;;5.98;88.34
56721;BME280;53183;47.412;18.884;2022-11-20T11:25:01;98861.56;;;5.96;87.44
56721;BME280;53183;47.412;18.884;2022-11-20T11:27:28;98870.91;;;6.01;87.08
56721;BME280;53183;47.412;18.884;2022-11-20T11:30:12;98864.69;;;6.04;86.29
56721;BME280;53183;47.412;18.884;2022-11-20T11:32:41;98868.38;;;6.00;87.16
56721;BME280;53183;47.412;18.884;2022-11-20T11:35:47;98860.28;;;6.04;87.23
56721;BME280;53183;47.412;18.884;2022-11-20T11:38:38;98858.66;;;6.02;87.00
56721;BME280;53183;47.412;18.884;2022-11-20T11:41:19;98854.72;;;5.92;87.84
56721;BME280;53183;47.412;18.884;2022-11-20T11:43:53;98850.78;;;6.02;87.95
56721;BME280;53183;47.412;18.884;2022-11-20T11:46:44;98851.78;;;5.99;88.20
56721;BME280;53183;47.412;18.884;2022-11-20T11:49:17;98841.09;;;5.83;89.73
56721;BME280;53183;47.412;18.884;2022-11-20T11:57:51;98832.12;;;6.08;88.49
56721;BME280;53183;47.412;18.884;2022-11-20T12:00:21;98835.50;;;5.93;88.27
56721;BME280;53183;47.412;18.884;2022-11-20T12:02:59;98833.56;;;5.76;90.25
56721;BME280;53183;47.412;18.884;2022-11-20T12:05:38;98827.78;;;5.88;90.03
56721;BME280;53183;47.412;18.884;2022-11-20T12:08:43;98836.56;;;5.87;89.08
56721;BME280;53183;47.412;18.884;2022-11-20T12:14:17;98834.41;;;5.97;87.84
56721;BME280;53183;47.412;18.884;2022-11-20T12:16:46;98834.00;;;6.06;88.36
56721;BME280;53183;47.412;18.884;2022-11-20T12:19:14;98822.72;;;6.04;88.70
56721;BME280;53183;47.412;18.884;2022-11-20T12:30:07;98815.91;;;6.00;89.34
56721;BME280;53183;47.412;18.884;2022-11-20T13:03:03;98847.25;;;5.43;91.80
56721;BME280;53183;47.412;18.884;2022-11-20T13:08:01;98834.75;;;5.50;90.75
56721;BME280;53183;47.412;18.884;2022-11-20T13:16:58;98837.88;;;5.58;90.77
56721;BME280;53183;47.412;18.884;2022-11-20T13:19:22;98840.75;;;5.52;91.39
56721;BME280;53183;47.412;18.884;2022-11-20T13:21:50;98835.72;;;5.47;90.70
56721;BME280;53183;47.412;18.884;2022-11-20T13:29:44;98829.22;;;5.35;90.35
56721;BME280;53183;47.412;18.884;2022-11-20T13:32:16;98814.97;;;5.22;91.52
56721;BME280;53183;47.412;18.884;2022-11-20T13:34:55;98802.84;;;5.20;91.27
56721;BME280;53183;47.412;18.884;2022-11-20T13:37:36;98803.25;;;5.10;92.87
56721;BME280;53183;47.412;18.884;2022-11-20T13:43:04;98797.81;;;5.15;94.12
56721;BME280;53183;47.412;18.884;2022-11-20T13:45:33;98788.63;;;5.05;94.03
56721;BME280;53183;47.412;18.884;2022-11-20T13:48:15;98792.44;;;4.98;95.33
56721;BME280;53183;47.412;18.884;2022-11-20T13:51:03;98795.44;;;5.09;95.00
56721;BME280;53183;47.412;18.884;2022-11-20T14:02:14;98781.59;;;5.07;95.70
56721;BME280;53183;47.412;18.884;2022-11-20T14:04:47;98779.34;;;4.98;96.70
56721;BME280;53183;47.412;18.884;2022-11-20T14:07:17;98778.28;;;5.02;95.00
56721;BME280;53183;47.412;18.884;2022-11-20T14:09:54;98780.44;;;4.92;94.61
56721;BME280;53183;47.412;18.884;2022-11-20T14:12:30;98785.41;;;4.78;96.82
56721;BME280;53183;47.412;18.884;2022-11-20T14:14:59;98786.19;;;4.80;95.57
56721;BME280;53183;47.412;18.884;2022-11-20T14:17:34;98788.94;;;4.77;95.39
56721;BME280;53183;47.412;18.884;2022-11-20T14:20:05;98797.06;;;4.70;95.57
56721;BME280;53183;47.412;18.884;2022-11-20T14:22:33;98797.13;;;4.69;95.85
56721;BME280;53183;47.412;18.884;2022-11-20T14:27:57;98806.06;;;4.63;96.71
56721;BME280;53183;47.412;18.884;2022-11-20T14:30:28;98805.28;;;4.61;97.02
56721;BME280;53183;47.412;18.884;2022-11-20T14:33:01;98805.75;;;4.71;96.43
56721;BME280;53183;47.412;18.884;2022-11-20T14:35:31;98804.47;;;4.59;96.13
56721;BME280;53183;47.412;18.884;2022-11-20T14:38:02;98812.28;;;4.61;96.21
56721;BME280;53183;47.412;18.884;2022-11-20T14:40:34;98807.69;;;4.44;96.74
56721;BME280;53183;47.412;18.884;2022-11-20T14:43:25;98811.13;;;4.46;96.69
56721;BME280;53183;47.412;18.884;2022-11-20T14:46:01;98817.28;;;4.45;96.10
56721;BME280;53183;47.412;18.884;2022-11-20T14:48:32;98823.72;;;4.36;96.82
56721;BME280;53183;47.412;18.884;2022-11-20T14:51:01;98821.16;;;4.35;98.22
56721;BME280;53183;47.412;18.884;2022-11-20T14:53:28;98829.19;;;4.30;98.43
56721;BME280;53183;47.412;18.884;2022-11-20T14:56:00;98828.53;;;4.25;97.53
56721;BME280;53183;47.412;18.884;2022-11-20T14:58:32;98829.25;;;4.29;97.93
56721;BME280;53183;47.412;18.884;2022-11-20T15:01:03;98819.84;;;4.25;98.11
56721;BME280;53183;47.412;18.884;2022-11-20T15:03:39;98832.09;;;4.22;98.54
56721;BME280;53183;47.412;18.884;2022-11-20T15:06:10;98824.72;;;4.10;98.91